Terminal Aerodrome Forecast
Issued by NWS Twin Cities, MN

Home | Current Version | Previous Version | Text Only | Print | Product List | Glossary On
Versions: 1 2 3 4 5 6 7 8 9 10 11 12 13 14 15
956
FTUS43 KMPX 240520
TAFSTC
TAF
KSTC 240520Z 2406/2506 33016G23KT P6SM SCT035 BKN050
     FM240800 33021G33KT P6SM BKN050
     FM241500 33024G37KT P6SM FEW200
     FM242300 31018G28KT P6SM SKC
     FM250200 31011KT P6SM FEW200
     FM250400 30007KT P6SM SCT120=

USA.gov is the U.S. government's official web portal to all federal, state and local government web resources and services.